Terminal Aerodrome Forecast
Issued by NWS Medford, OR

Home | Current Version | Previous Version | Text Only | Print | Product List | Glossary On
Versions: 1 2 3 4 5 6 7 8 9 10 11 12 13 14
000
FTUS46 KMFR 020803 AAB
TAFMFR
TAF AMD
KMFR 020803Z 0208/0306 32004KT P6SM SCT030 OVC045
     FM020900 32004KT P6SM -SHRA BKN025 BKN045
     FM022000 31010KT P6SM VCSH SCT035 BKN050
     FM030400 35007KT P6SM OVC040=

USA.gov is the U.S. government's official web portal to all federal, state and local government web resources and services.